Time;durP1;ratioP1;P1;durP2;ratioP2;P2;SDS_P1;SDS_P2;PMS_P1;PMS_P2;Temp;Humidity;BMP_temperature;BMP_pressure;BME280_temperature;BME280_humidity;BME280_pressure;Samples;Min_cycle;Max_cycle;Signal;HPM_P1;HPM_P2
2021/12/20 00:02:15;;;;;;;3.38;3.15;;;;;;;2.67;100.00;99675.06;4955565;29;20106;-69
2021/12/20 00:04:40;;;;;;;3.45;2.83;;;;;;;2.68;100.00;99666.53;4955457;28;20027;-69
2021/12/20 00:07:05;;;;;;;3.65;3.35;;;;;;;2.77;100.00;99669.34;4948900;29;20110;-69
2021/12/20 00:09:31;;;;;;;4.47;3.22;;;;;;;2.83;100.00;99669.53;4947234;28;20042;-69
2021/12/20 00:11:56;;;;;;;4.60;3.72;;;;;;;2.89;100.00;99660.28;4955573;29;20031;-69
2021/12/20 00:14:21;;;;;;;4.22;3.00;;;;;;;2.78;100.00;99663.41;4955287;28;20085;-69
2021/12/20 00:16:47;;;;;;;7.38;3.42;;;;;;;2.75;100.00;99658.19;4955142;28;20054;-70
2021/12/20 00:19:12;;;;;;;1.92;1.80;;;;;;;2.71;100.00;99652.97;4938077;29;20027;-69
2021/12/20 00:21:38;;;;;;;13.85;4.47;;;;;;;2.66;100.00;99655.41;4955225;29;20034;-69
2021/12/20 00:24:04;;;;;;;3.70;3.35;;;;;;;2.67;100.00;99649.47;4955064;28;20075;-68
2021/12/20 00:26:30;;;;;;;4.07;3.75;;;;;;;2.66;100.00;99642.63;4954821;29;20024;-69
2021/12/20 00:28:55;;;;;;;2.42;2.22;;;;;;;2.73;100.00;99649.63;4955041;29;20031;-66
2021/12/20 00:31:20;;;;;;;4.75;3.35;;;;;;;2.73;100.00;99646.19;4955000;29;20093;-69
2021/12/20 00:33:46;;;;;;;3.80;3.50;;;;;;;2.71;100.00;99653.84;4955069;29;20039;-68
2021/12/20 00:36:11;;;;;;;3.35;3.15;;;;;;;2.65;100.00;99638.31;4949083;29;20473;-68
2021/12/20 00:41:22;;;;;;;6.10;3.03;;;;;;;2.93;100.00;99621.13;4955089;28;20055;-68
2021/12/20 00:43:48;;;;;;;3.63;2.70;;;;;;;3.11;100.00;99624.19;4954624;28;20031;-69
2021/12/20 00:46:14;;;;;;;3.65;2.53;;;;;;;3.27;100.00;99627.97;4954410;29;20031;-69
2021/12/20 00:48:39;;;;;;;3.45;2.90;;;;;;;2.86;100.00;99624.38;4954698;28;20027;-69
2021/12/20 00:51:04;;;;;;;3.42;3.00;;;;;;;2.78;100.00;99622.47;4954504;29;20027;-66
2021/12/20 00:53:30;;;;;;;3.58;3.28;;;;;;;2.69;100.00;99636.72;4954619;29;20027;-66
2021/12/20 00:55:55;;;;;;;4.63;4.20;;;;;;;2.56;100.00;99632.94;4954321;29;20048;-68
2021/12/20 00:58:20;;;;;;;3.88;2.75;;;;;;;2.59;100.00;99635.59;4954593;29;20028;-69
2021/12/20 05:16:38;;;;;;;3.87;2.13;;;;;;;2.44;100.00;99594.25;5392077;23;20048;-70
2021/12/20 05:19:04;;;;;;;3.97;3.05;;;;;;;2.41;100.00;99599.25;4935068;29;20386;-69
2021/12/20 05:21:30;;;;;;;2.78;2.53;;;;;;;2.45;100.00;99595.97;4935302;29;20051;-69
2021/12/20 05:23:55;;;;;;;2.38;2.17;;;;;;;2.38;100.00;99594.09;4935236;29;20110;-69
2021/12/20 05:26:20;;;;;;;6.03;3.25;;;;;;;2.40;100.00;99583.06;4934743;29;20589;-69
2021/12/20 05:28:46;;;;;;;1.65;1.55;;;;;;;2.51;100.00;99585.91;4869593;29;20043;-71
2021/12/20 05:31:11;;;;;;;2.38;2.28;;;;;;;2.56;100.00;99576.66;4933450;29;20031;-72
2021/12/20 05:33:37;;;;;;;5.20;3.50;;;;;;;2.50;100.00;99595.25;4934933;29;20023;-72
2021/12/20 05:36:02;;;;;;;4.97;4.55;;;;;;;2.41;100.00;99599.25;4934621;29;20103;-72
2021/12/20 05:38:27;;;;;;;4.45;4.15;;;;;;;2.48;100.00;99598.63;4943731;29;20115;-73
2021/12/20 05:40:53;;;;;;;3.83;3.53;;;;;;;2.62;100.00;99599.88;4954032;28;20534;-72
2021/12/20 05:43:18;;;;;;;6.90;3.72;;;;;;;2.52;100.00;99603.88;4953904;29;20030;-70
2021/12/20 05:45:44;;;;;;;3.80;3.05;;;;;;;2.46;100.00;99608.78;4953799;28;20528;-72
2021/12/20 05:48:09;;;;;;;3.70;3.38;;;;;;;2.44;100.00;99610.44;4953807;28;20396;-71
2021/12/20 05:50:34;;;;;;;5.45;2.38;;;;;;;2.49;100.00;99614.00;4953960;29;20480;-71
2021/12/20 05:53:00;;;;;;;3.17;2.60;;;;;;;2.50;100.00;99619.97;4953706;29;20023;-72
2021/12/20 05:55:25;;;;;;;3.05;2.85;;;;;;;2.45;100.00;99624.97;4953876;29;20070;-72
2021/12/20 05:57:50;;;;;;;4.00;3.45;;;;;;;2.45;100.00;99621.53;4953611;29;20114;-71
2021/12/20 06:00:19;;;;;;;5.95;4.43;;;;;;;2.34;100.00;99623.81;4953778;28;20094;-71
2021/12/20 06:02:48;;;;;;;4.83;2.57;;;;;;;2.33;100.00;99631.44;4952482;29;20027;-71
2021/12/20 06:05:14;;;;;;;3.15;2.80;;;;;;;2.42;100.00;99629.13;4953639;29;20058;-71
2021/12/20 06:07:42;;;;;;;4.75;4.40;;;;;;;2.49;100.00;99633.59;4944386;29;20032;-71
2021/12/20 06:10:10;;;;;;;7.10;4.82;;;;;;;2.49;100.00;99629.34;4948697;28;20047;-71
2021/12/20 06:12:36;;;;;;;2.80;2.30;;;;;;;2.61;100.00;99622.81;4953635;29;20400;-71
2021/12/20 06:15:03;;;;;;;5.20;4.72;;;;;;;2.56;100.00;99627.81;4940499;28;20023;-71
2021/12/20 06:17:28;;;;;;;4.35;3.85;;;;;;;2.52;100.00;99623.47;4941902;29;20078;-71
2021/12/20 06:19:53;;;;;;;1.83;1.77;;;;;;;2.47;100.00;99619.91;4934386;29;20032;-71
2021/12/20 06:22:19;;;;;;;4.18;2.67;;;;;;;2.48;100.00;99616.53;4934498;29;20528;-72
2021/12/20 06:24:44;;;;;;;4.68;3.53;;;;;;;2.48;100.00;99621.66;4934329;29;20024;-71
2021/12/20 06:27:09;;;;;;;3.42;3.10;;;;;;;2.38;100.00;99619.66;4934204;29;20057;-71
2021/12/20 06:29:35;;;;;;;4.18;2.05;;;;;;;2.46;100.00;99624.13;4934353;29;20036;-71
2021/12/20 06:32:00;;;;;;;8.98;3.60;;;;;;;2.35;100.00;99620.41;4934384;29;20486;-71
2021/12/20 06:34:25;;;;;;;9.93;3.97;;;;;;;2.45;100.00;99621.53;4934267;29;20139;-71
2021/12/20 06:36:51;;;;;;;4.60;3.83;;;;;;;2.47;100.00;99630.16;4933052;29;20047;-71
2021/12/20 06:39:16;;;;;;;2.75;2.55;;;;;;;2.53;100.00;99628.63;4941998;29;20036;-71
2021/12/20 06:41:43;;;;;;;2.58;2.15;;;;;;;2.58;100.00;99623.63;4935694;29;20027;-71
2021/12/20 06:44:08;;;;;;;7.78;3.47;;;;;;;2.49;100.00;99624.22;4937928;29;20170;-71
2021/12/20 06:46:37;;;;;;;17.10;2.95;;;;;;;2.46;100.00;99628.38;4937478;29;20532;-68
2021/12/20 06:49:05;;;;;;;6.95;3.47;;;;;;;2.49;100.00;99628.50;4937994;29;20076;-69
2021/12/20 06:51:34;;;;;;;2.85;2.63;;;;;;;2.53;100.00;99627.75;4937654;29;20036;-71
2021/12/20 06:53:59;;;;;;;6.60;4.10;;;;;;;2.55;100.00;99628.66;4937761;29;20031;-71
2021/12/20 06:56:25;;;;;;;3.85;3.05;;;;;;;2.58;100.00;99628.75;4937291;29;20106;-69
2021/12/20 06:58:53;;;;;;;4.20;3.60;;;;;;;2.51;100.00;99632.81;4936770;29;20056;-71
2021/12/20 07:01:19;;;;;;;6.25;4.00;;;;;;;2.56;100.00;99630.38;4945515;29;20031;-68
2021/12/20 07:03:45;;;;;;;8.05;4.57;;;;;;;2.55;100.00;99636.31;4937590;29;20028;-71
2021/12/20 07:06:11;;;;;;;4.20;3.80;;;;;;;2.57;100.00;99632.13;4937183;29;20022;-69
2021/12/20 07:08:36;;;;;;;4.05;2.70;;;;;;;2.61;100.00;99641.63;4947428;29;20023;-70
2021/12/20 07:11:01;;;;;;;8.20;4.78;;;;;;;2.62;100.00;99640.81;4956558;29;20027;-68
2021/12/20 07:13:27;;;;;;;5.22;2.85;;;;;;;2.75;100.00;99647.09;4956474;29;20145;-68
2021/12/20 07:15:52;;;;;;;5.45;2.60;;;;;;;2.84;100.00;99642.22;4956237;29;20035;-69
2021/12/20 07:18:17;;;;;;;2.72;2.38;;;;;;;2.74;100.00;99646.22;4956342;29;20035;-69
2021/12/20 07:20:43;;;;;;;5.32;3.83;;;;;;;2.77;100.00;99648.03;4939206;29;20050;-69
2021/12/20 07:23:08;;;;;;;4.38;2.67;;;;;;;2.80;100.00;99645.53;4956248;29;20042;-69
2021/12/20 07:25:33;;;;;;;10.93;2.70;;;;;;;2.79;100.00;99654.03;4956271;29;20034;-69
2021/12/20 07:27:59;;;;;;;4.63;4.22;;;;;;;2.60;100.00;99657.78;4955866;28;20023;-69
2021/12/20 07:30:24;;;;;;;10.60;5.35;;;;;;;2.61;100.00;99654.41;4945396;29;20024;-69
2021/12/20 07:32:50;;;;;;;3.42;3.13;;;;;;;2.60;100.00;99667.16;4956265;29;20027;-69
2021/12/20 07:35:15;;;;;;;2.75;2.55;;;;;;;2.60;100.00;99656.91;4956064;29;20023;-68
2021/12/20 07:37:42;;;;;;;2.65;2.45;;;;;;;2.63;100.00;99659.56;4946310;29;20071;-69
2021/12/20 07:40:08;;;;;;;3.47;3.17;;;;;;;2.56;100.00;99661.06;4951205;29;20035;-72
2021/12/20 07:42:34;;;;;;;2.50;2.30;;;;;;;2.55;100.00;99664.47;4955902;28;20023;-69
2021/12/20 07:45:00;;;;;;;5.47;3.33;;;;;;;2.63;100.00;99663.00;4956018;28;20024;-71
2021/12/20 07:47:25;;;;;;;2.90;2.22;;;;;;;2.58;100.00;99659.44;4955615;29;20023;-71
2021/12/20 07:49:50;;;;;;;4.30;3.08;;;;;;;2.58;100.00;99664.56;4955897;29;20078;-72
2021/12/20 07:52:16;;;;;;;1.98;1.88;;;;;;;2.63;100.00;99668.09;4955555;28;20026;-72
2021/12/20 07:54:41;;;;;;;5.10;4.07;;;;;;;2.58;100.00;99659.44;4955060;29;20027;-72
2021/12/20 07:57:07;;;;;;;2.60;2.22;;;;;;;2.65;100.00;99666.44;4955441;28;20026;-72
2021/12/20 07:59:32;;;;;;;5.25;4.50;;;;;;;2.77;100.00;99660.81;4950802;29;20035;-71
2021/12/20 08:01:57;;;;;;;4.40;2.78;;;;;;;2.83;100.00;99666.09;4949494;29;20077;-71
2021/12/20 08:04:23;;;;;;;4.45;3.15;;;;;;;2.84;100.00;99663.56;4955646;29;20035;-71
2021/12/20 08:06:49;;;;;;;12.25;2.00;;;;;;;2.98;100.00;99663.06;4948716;29;20058;-68
2021/12/20 08:09:14;;;;;;;6.25;3.17;;;;;;;3.00;100.00;99666.56;4947369;29;20065;-68
2021/12/20 08:11:41;;;;;;;4.47;3.83;;;;;;;2.93;100.00;99672.34;4955997;29;20035;-71
2021/12/20 08:14:07;;;;;;;3.17;2.90;;;;;;;2.89;100.00;99670.50;4955313;28;20028;-71
2021/12/20 08:16:32;;;;;;;2.58;2.30;;;;;;;2.86;100.00;99670.44;4954980;29;20087;-71
2021/12/20 08:18:57;;;;;;;3.05;2.78;;;;;;;2.91;100.00;99676.56;4955313;29;20054;-71
2021/12/20 08:21:23;;;;;;;8.25;3.80;;;;;;;2.90;100.00;99672.22;4955370;29;20034;-72
2021/12/20 08:23:49;;;;;;;2.45;2.25;;;;;;;2.94;100.00;99669.81;4955305;28;20027;-72
2021/12/20 08:26:14;;;;;;;3.03;2.78;;;;;;;2.98;100.00;99670.75;4954973;29;20016;-72
2021/12/20 08:28:40;;;;;;;3.17;2.72;;;;;;;2.98;100.00;99673.31;4952139;28;20042;-72
2021/12/20 08:31:07;;;;;;;3.20;2.90;;;;;;;3.02;100.00;99668.31;4947000;29;20027;-72
2021/12/20 08:33:33;;;;;;;6.32;3.92;;;;;;;2.95;99.92;99665.53;4954988;29;20046;-72
2021/12/20 08:36:01;;;;;;;3.75;3.42;;;;;;;2.97;99.20;99674.16;4950853;29;20111;-71
2021/12/20 08:38:26;;;;;;;4.88;2.83;;;;;;;3.16;99.28;99680.63;4944464;28;20059;-71
2021/12/20 08:40:51;;;;;;;2.50;2.03;;;;;;;3.29;99.98;99667.31;4954903;29;20485;-71
2021/12/20 08:43:17;;;;;;;5.95;1.95;;;;;;;3.48;98.38;99678.88;4954830;28;20097;-71
2021/12/20 08:45:43;;;;;;;3.53;2.22;;;;;;;3.54;96.65;99668.78;4954570;29;20054;-71
2021/12/20 08:48:09;;;;;;;9.80;4.15;;;;;;;3.33;96.80;99675.09;4953607;28;20121;-71
2021/12/20 08:50:35;;;;;;;3.30;2.30;;;;;;;3.56;95.92;99677.38;4953480;29;20027;-71
2021/12/20 08:53:00;;;;;;;1.55;1.48;;;;;;;3.40;96.46;99680.38;4954731;29;20042;-72
2021/12/20 08:55:26;;;;;;;2.10;1.90;;;;;;;3.47;96.88;99687.38;4954477;28;20396;-71
2021/12/20 08:57:52;;;;;;;3.90;1.83;;;;;;;3.48;96.72;99689.13;4954422;29;20027;-72
2021/12/20 09:00:22;;;;;;;3.58;3.08;;;;;;;3.53;96.35;99693.53;4943954;29;20405;-72
2021/12/20 09:02:47;;;;;;;2.60;2.45;;;;;;;3.65;96.35;99687.84;4910245;29;20048;-71
2021/12/20 09:05:13;;;;;;;4.32;3.17;;;;;;;3.69;95.62;99688.78;4935111;29;20042;-72
2021/12/20 09:07:41;;;;;;;4.00;3.00;;;;;;;3.83;96.16;99693.41;4945340;29;20099;-71
2021/12/20 09:10:08;;;;;;;2.72;2.45;;;;;;;3.72;95.73;99694.84;4954381;29;20034;-72
2021/12/20 09:12:33;;;;;;;4.03;2.65;;;;;;;3.71;95.58;99700.78;4954216;29;20031;-71
2021/12/20 09:14:58;;;;;;;3.00;1.83;;;;;;;3.74;95.32;99690.63;4954357;29;20033;-71
2021/12/20 09:17:24;;;;;;;4.80;4.22;;;;;;;3.77;95.72;99695.84;4953840;29;20023;-72
2021/12/20 09:19:51;;;;;;;2.47;1.42;;;;;;;3.69;94.88;99702.47;4954292;29;20035;-69
2021/12/20 09:22:17;;;;;;;3.35;3.03;;;;;;;3.55;95.24;99708.94;4954218;29;20396;-68
2021/12/20 09:24:42;;;;;;;4.75;3.45;;;;;;;3.56;95.61;99708.97;4954183;29;20477;-68
2021/12/20 09:27:08;;;;;;;2.75;1.85;;;;;;;3.50;96.49;99703.72;4953905;29;20027;-68
2021/12/20 09:29:34;;;;;;;9.52;3.40;;;;;;;3.59;96.32;99708.19;4951230;29;20038;-68
2021/12/20 09:32:00;;;;;;;5.18;3.90;;;;;;;3.59;95.88;99708.19;4953931;29;20384;-68
2021/12/20 09:34:26;;;;;;;4.30;3.95;;;;;;;3.56;96.30;99710.69;4936823;29;20118;-68
2021/12/20 09:36:54;;;;;;;9.30;3.75;;;;;;;3.74;95.74;99717.97;4947164;29;20501;-71
2021/12/20 09:39:21;;;;;;;4.43;3.65;;;;;;;3.91;94.71;99703.84;4953783;29;20027;-68
2021/12/20 09:44:12;;;;;;;2.58;2.42;;;;;;;3.95;94.88;99703.06;4953953;29;20019;-69
2021/12/20 09:46:39;;;;;;;2.47;2.33;;;;;;;4.13;95.84;99702.66;4953703;29;20034;-72
2021/12/20 09:49:06;;;;;;;5.47;4.40;;;;;;;4.28;95.45;99702.97;4953793;29;20031;-71
2021/12/20 09:51:32;;;;;;;5.88;3.85;;;;;;;4.50;93.19;99701.75;4953948;29;20351;-71
2021/12/20 09:53:57;;;;;;;6.32;3.67;;;;;;;4.45;93.40;99699.91;4953787;29;20023;-71
2021/12/20 09:56:25;;;;;;;3.70;2.65;;;;;;;4.36;93.03;99693.75;4953531;29;20381;-72
2021/12/20 09:58:52;;;;;;;6.93;5.22;;;;;;;4.66;91.48;99700.38;4950796;29;20031;-72
2021/12/20 10:01:21;;;;;;;5.20;3.75;;;;;;;4.90;90.37;99700.88;4953684;29;20063;-71
2021/12/20 10:03:47;;;;;;;2.05;1.90;;;;;;;5.06;89.70;99690.88;4953622;29;20400;-69
2021/12/20 10:06:13;;;;;;;3.80;3.45;;;;;;;5.11;88.18;99686.69;4948062;29;20028;-68
2021/12/20 10:08:49;;;;;;;1.95;1.85;;;;;;;5.37;86.11;99677.75;4952558;29;20090;-71
2021/12/20 10:11:21;;;;;;;5.30;4.03;;;;;;;6.06;83.14;99676.31;4953871;29;20047;-71
2021/12/20 10:13:47;;;;;;;4.72;3.38;;;;;;;6.47;80.42;99682.88;4953695;29;20027;-71
2021/12/20 10:16:23;;;;;;;7.70;3.25;;;;;;;6.94;79.30;99676.56;4953997;28;20492;-71
2021/12/20 10:18:49;;;;;;;4.78;3.13;;;;;;;7.34;76.40;99686.44;4957326;29;20027;-72
2021/12/20 10:21:15;;;;;;;4.32;3.17;;;;;;;7.24;76.14;99682.03;4957543;29;20078;-71
2021/12/20 10:23:45;;;;;;;7.50;4.20;;;;;;;6.94;78.20;99681.72;4957443;29;20031;-69
2021/12/20 10:26:20;;;;;;;8.13;3.78;;;;;;;7.19;77.11;99687.16;4957125;29;20066;-69
2021/12/20 10:28:48;;;;;;;5.18;4.15;;;;;;;7.29;75.97;99673.50;4954402;29;20032;-69
2021/12/20 10:31:17;;;;;;;6.07;4.43;;;;;;;6.84;77.36;99676.47;4957119;29;20110;-69
2021/12/20 10:34:00;;;;;;;4.40;3.80;;;;;;;6.78;78.48;99673.84;4957155;29;20023;-69
2021/12/20 10:36:26;;;;;;;20.63;5.63;;;;;;;7.46;75.89;99668.50;4950249;29;20032;-69
2021/12/20 10:38:57;;;;;;;4.28;3.25;;;;;;;9.52;67.78;99659.19;4957048;29;20054;-69
2021/12/20 10:41:33;;;;;;;12.40;3.95;;;;;;;10.09;63.43;99660.84;4957504;29;20032;-69
2021/12/20 10:44:01;;;;;;;7.80;3.78;;;;;;;11.27;62.22;99648.31;4957075;29;20035;-69
2021/12/20 10:46:35;;;;;;;6.75;2.85;;;;;;;11.51;57.91;99642.94;4939397;29;20023;-69
2021/12/20 10:49:04;;;;;;;6.68;2.95;;;;;;;9.83;62.89;99654.00;4957082;29;20051;-72
2021/12/20 10:51:39;;;;;;;2.78;2.47;;;;;;;8.28;66.53;99660.50;4957219;29;20490;-72
2021/12/20 10:54:10;;;;;;;4.32;2.80;;;;;;;6.61;73.25;99676.19;4956986;29;20047;-68
2021/12/20 10:56:38;;;;;;;8.00;2.13;;;;;;;6.18;75.53;99679.03;4956467;29;20031;-72
2021/12/20 10:59:10;;;;;;;4.68;2.25;;;;;;;5.61;78.31;99671.31;4953721;29;20041;-68
2021/12/20 11:04:16;;;;;;;3.15;2.85;;;;;;;5.41;82.32;99669.28;4956768;29;20058;-69
2021/12/20 11:09:35;;;;;;;3.67;3.35;;;;;;;5.12;83.69;99666.16;4956757;29;20034;-69
2021/12/20 11:12:07;;;;;;;4.18;2.80;;;;;;;5.23;82.48;99663.81;4956525;29;20027;-69
2021/12/20 11:14:39;;;;;;;5.25;1.98;;;;;;;5.02;83.03;99668.53;4956443;29;20023;-69
2021/12/20 11:17:07;;;;;;;10.82;2.88;;;;;;;5.00;84.51;99662.53;4955887;29;20084;-69
2021/12/20 11:19:39;;;;;;;3.03;2.70;;;;;;;4.74;84.42;99667.13;4956384;29;20078;-69
2021/12/20 11:22:09;;;;;;;2.67;2.47;;;;;;;4.62;85.72;99671.19;4956275;29;20031;-68
2021/12/20 11:24:37;;;;;;;3.97;2.10;;;;;;;4.80;86.42;99668.16;4956183;29;20481;-69
2021/12/20 11:27:05;;;;;;;1.48;1.38;;;;;;;4.74;87.05;99670.59;4955655;28;20034;-69
2021/12/20 11:29:31;;;;;;;4.07;3.72;;;;;;;4.78;85.54;99658.66;4952562;29;20023;-69
2021/12/20 11:31:57;;;;;;;7.63;2.97;;;;;;;4.81;85.66;99664.72;4938750;29;20023;-69
2021/12/20 11:34:24;;;;;;;4.05;3.35;;;;;;;4.80;85.71;99663.00;4956347;29;20122;-72
2021/12/20 11:36:50;;;;;;;6.32;3.13;;;;;;;4.75;85.32;99662.06;4949070;29;20011;-69
2021/12/20 11:39:17;;;;;;;7.25;2.15;;;;;;;4.73;84.53;99660.28;4955880;28;20031;-68
2021/12/20 11:41:42;;;;;;;2.70;2.25;;;;;;;4.69;85.41;99661.94;4956041;29;20107;-71
2021/12/20 11:44:13;;;;;;;2.58;2.00;;;;;;;4.76;85.49;99656.06;4955902;29;20451;-69
2021/12/20 11:46:51;;;;;;;3.33;2.40;;;;;;;4.62;85.71;99657.50;4955463;29;20019;-71
2021/12/20 11:49:22;;;;;;;5.63;3.10;;;;;;;4.65;86.39;99657.59;4956076;29;20027;-72
2021/12/20 11:52:01;;;;;;;8.63;3.90;;;;;;;4.55;86.57;99655.66;4955824;29;20036;-68
2021/12/20 11:54:34;;;;;;;;;;;;;;;4.43;86.14;99655.41;4956196;29;20038;-72
2021/12/20 11:57:00;;;;;;;3.05;2.85;;;;;;;4.11;88.00;99653.03;4955503;29;19914;-72
2021/12/20 11:59:47;;;;;;;2.78;1.90;;;;;;;4.05;88.45;99653.75;4952603;29;20031;-71
2021/12/20 12:02:26;;;;;;;3.05;2.13;;;;;;;3.98;88.44;99661.28;4955552;29;20042;-72
2021/12/20 12:05:04;;;;;;;3.40;3.08;;;;;;;3.90;88.54;99658.53;4955556;29;20038;-72
2021/12/20 12:07:38;;;;;;;2.17;1.92;;;;;;;3.87;88.67;99658.47;4948430;29;20113;-68
2021/12/20 12:10:03;;;;;;;6.75;4.15;;;;;;;3.83;88.92;99651.53;4955274;29;20035;-68
2021/12/20 12:12:29;;;;;;;2.35;2.08;;;;;;;3.78;89.91;99648.88;4955476;29;20393;-69
2021/12/20 12:15:07;;;;;;;9.38;2.90;;;;;;;3.83;89.85;99651.53;4955391;29;20396;-69
2021/12/20 12:17:57;;;;;;;2.67;2.20;;;;;;;3.94;88.53;99649.22;4954903;29;20031;-69
2021/12/20 12:20:37;;;;;;;2.72;2.53;;;;;;;3.85;87.56;99650.72;4955571;29;20035;-68
2021/12/20 12:23:22;;;;;;;6.93;5.10;;;;;;;4.43;86.30;99656.25;4955235;29;20023;-71
2021/12/20 12:25:55;;;;;;;15.50;5.28;;;;;;;5.43;80.32;99640.16;4955398;29;20070;-72
2021/12/20 12:28:26;;;;;;;8.48;3.47;;;;;;;5.04;81.21;99646.34;4952244;29;20029;-73
2021/12/20 12:31:09;;;;;;;5.03;3.22;;;;;;;4.72;81.96;99649.16;4947871;29;20669;-72
2021/12/20 12:33:37;;;;;;;4.63;4.22;;;;;;;4.45;83.30;99653.72;4955282;29;20407;-73
2021/12/20 12:36:24;;;;;;;3.42;3.13;;;;;;;4.33;83.90;99650.06;4950460;29;20028;-69
2021/12/20 12:38:57;;;;;;;2.67;2.47;;;;;;;4.21;84.56;99649.84;4946866;28;20135;-69
2021/12/20 12:41:26;;;;;;;2.70;2.50;;;;;;;4.14;85.29;99645.38;4954893;29;20034;-72
2021/12/20 12:43:57;;;;;;;1.57;1.47;;;;;;;4.08;85.57;99652.97;4955047;29;20037;-72
2021/12/20 12:46:41;;;;;;;6.13;2.67;;;;;;;4.27;84.80;99655.09;4954617;29;20262;-72
2021/12/20 12:49:19;;;;;;;2.65;2.33;;;;;;;4.20;85.01;99653.19;4955054;29;20031;-72
2021/12/20 12:51:44;;;;;;;6.85;2.67;;;;;;;4.14;85.59;99640.25;4954679;29;20034;-69
2021/12/20 12:56:38;;;;;;;4.88;1.80;;;;;;;4.21;85.98;99648.97;5069335;28;20716;-70
2021/12/20 12:59:13;;;;;;;6.55;3.08;;;;;;;4.32;86.00;99648.34;5072089;28;20040;-70
2021/12/20 13:01:47;;;;;;;3.70;3.13;;;;;;;4.18;85.59;99641.19;5080858;28;20024;-70
2021/12/20 13:04:12;;;;;;;4.03;3.75;;;;;;;4.05;86.47;99637.50;5089473;28;20032;-70
2021/12/20 13:06:38;;;;;;;3.47;2.80;;;;;;;4.08;86.69;99642.69;5075233;28;20052;-70
2021/12/20 13:09:03;;;;;;;8.05;1.77;;;;;;;3.97;86.60;99634.78;5080805;28;20377;-70
2021/12/20 13:11:30;;;;;;;6.55;4.07;;;;;;;4.01;86.92;99630.56;5089296;28;20020;-70
2021/12/20 13:14:13;;;;;;;3.78;2.72;;;;;;;4.26;87.66;99637.97;5089122;28;20024;-70
2021/12/20 13:17:01;;;;;;;2.08;1.88;;;;;;;4.36;85.53;99632.19;5089098;28;20085;-70
2021/12/20 13:19:35;;;;;;;3.30;3.00;;;;;;;4.34;85.08;99630.41;5089119;28;20474;-70
2021/12/20 13:22:04;;;;;;;2.97;2.17;;;;;;;4.57;84.74;99633.44;5087774;28;20032;-70
2021/12/20 13:24:30;;;;;;;6.47;2.40;;;;;;;4.87;83.76;99631.47;5088947;28;20170;-70
2021/12/20 13:27:06;;;;;;;4.68;2.67;;;;;;;5.02;81.81;99630.00;5088655;28;20028;-70
2021/12/20 13:29:31;;;;;;;3.55;3.25;;;;;;;5.17;80.72;99632.84;5081023;28;20035;-70
2021/12/20 13:32:08;;;;;;;7.72;3.33;;;;;;;5.09;79.55;99624.16;5081935;28;20389;-70
2021/12/20 13:34:34;;;;;;;4.47;1.42;;;;;;;4.68;80.05;99621.69;5088847;28;20017;-69
2021/12/20 13:37:07;;;;;;;6.38;2.88;;;;;;;4.78;80.01;99633.84;5074474;28;20024;-70
2021/12/20 13:39:32;;;;;;;5.20;2.42;;;;;;;5.15;80.37;99634.53;5080239;28;20024;-70
2021/12/20 13:42:09;;;;;;;7.00;3.00;;;;;;;4.93;81.02;99633.28;5088627;28;20024;-70
2021/12/20 13:44:35;;;;;;;2.15;1.58;;;;;;;4.78;81.70;99628.72;5088620;28;20021;-70
2021/12/20 13:47:03;;;;;;;1.17;1.17;;;;;;;4.52;82.96;99633.38;5088255;28;20028;-70
2021/12/20 13:49:29;;;;;;;1.58;1.48;;;;;;;4.76;82.99;99625.28;5088510;28;20035;-67
2021/12/20 13:52:10;;;;;;;4.65;3.17;;;;;;;4.79;82.42;99629.63;5087270;28;20024;-71
2021/12/20 13:54:39;;;;;;;1.35;1.23;;;;;;;4.63;82.96;99638.69;5088369;28;20056;-71
2021/12/20 13:57:23;;;;;;;2.17;1.85;;;;;;;4.55;83.01;99630.00;5088093;28;20046;-71
2021/12/20 13:59:56;;;;;;;4.78;2.05;;;;;;;4.70;81.50;99643.13;5077763;28;20020;-67
2021/12/20 14:02:22;;;;;;;4.18;1.60;;;;;;;4.88;81.07;99630.66;5084817;28;20028;-71
2021/12/20 14:04:51;;;;;;;3.60;2.78;;;;;;;4.75;79.10;99630.38;5088227;28;20028;-67
2021/12/20 14:07:23;;;;;;;2.45;1.83;;;;;;;4.87;78.69;99621.19;5064865;28;20386;-71
2021/12/20 14:10:00;;;;;;;1.73;1.65;;;;;;;4.96;76.67;99623.06;5059016;28;20029;-70
2021/12/20 14:12:36;;;;;;;2.67;2.15;;;;;;;4.99;77.66;99618.00;5074527;28;20035;-70
2021/12/20 14:15:15;;;;;;;2.65;1.98;;;;;;;5.18;76.66;99632.03;5074453;28;20024;-67
2021/12/20 14:17:50;;;;;;;4.38;1.63;;;;;;;5.16;74.46;99626.00;5074445;28;20062;-70
2021/12/20 14:20:15;;;;;;;10.07;3.35;;;;;;;4.92;74.55;99623.00;5074453;28;20046;-71
2021/12/20 14:22:59;;;;;;;1.67;1.58;;;;;;;4.93;75.49;99627.28;5074909;28;20032;-70
2021/12/20 14:25:33;;;;;;;1.33;1.05;;;;;;;4.81;74.72;99627.94;5053045;28;20028;-67
2021/12/20 14:28:11;;;;;;;1.02;1.02;;;;;;;4.85;75.39;99625.44;5054001;28;20021;-67
2021/12/20 14:30:53;;;;;;;1.90;1.80;;;;;;;4.73;74.44;99630.34;5063304;28;20066;-67
2021/12/20 14:33:30;;;;;;;1.55;1.30;;;;;;;4.65;75.44;99637.06;5074107;28;20082;-70
2021/12/20 14:36:09;;;;;;;3.60;1.55;;;;;;;4.65;75.62;99642.19;5066989;28;20028;-70
2021/12/20 14:38:46;;;;;;;1.75;1.65;;;;;;;4.45;75.17;99638.31;5062913;28;20035;-67
2021/12/20 14:41:18;;;;;;;2.40;2.20;;;;;;;4.40;74.94;99635.69;5074008;28;20104;-69
2021/12/20 14:43:44;;;;;;;1.38;0.93;;;;;;;4.26;77.00;99642.25;5074019;28;20501;-72
2021/12/20 14:46:53;;;;;;;1.92;1.50;;;;;;;4.31;77.71;99638.94;5073667;28;20031;-73
2021/12/20 14:49:22;;;;;;;1.13;1.00;;;;;;;4.23;76.91;99643.03;5073885;28;20028;-69
2021/12/20 14:51:49;;;;;;;0.90;0.90;;;;;;;4.12;77.59;99640.22;5073742;28;20029;-69
2021/12/20 14:54:14;;;;;;;1.48;1.33;;;;;;;4.06;78.69;99636.66;5073714;28;20028;-69
2021/12/20 14:56:47;;;;;;;3.97;1.95;;;;;;;4.02;78.81;99642.56;5073671;28;20031;-72
2021/12/20 14:59:14;;;;;;;1.77;1.67;;;;;;;3.87;78.91;99640.53;5067462;28;20389;-69
2021/12/20 15:01:39;;;;;;;1.70;1.60;;;;;;;3.68;81.36;99640.94;5065329;28;20481;-73
2021/12/20 15:04:04;;;;;;;6.18;1.95;;;;;;;3.52;81.24;99642.25;5073555;28;20059;-73
2021/12/20 15:06:41;;;;;;;2.72;1.67;;;;;;;3.40;82.06;99645.41;5059458;28;20037;-69
2021/12/20 15:09:06;;;;;;;0.90;0.90;;;;;;;3.34;81.14;99656.34;5065028;28;20035;-71
2021/12/20 15:11:31;;;;;;;1.65;1.15;;;;;;;3.30;81.20;99649.41;5073497;28;20021;-72
2021/12/20 15:13:57;;;;;;;2.15;1.92;;;;;;;3.17;81.58;99637.13;5073231;28;20031;-72
2021/12/20 15:16:22;;;;;;;2.60;2.40;;;;;;;3.03;82.19;99641.03;5073002;28;20024;-69
2021/12/20 15:18:48;;;;;;;2.65;2.08;;;;;;;2.86;83.01;99639.72;5072127;28;20028;-71
2021/12/20 15:21:13;;;;;;;1.52;1.42;;;;;;;2.68;85.04;99640.97;5073137;28;20056;-73
2021/12/20 15:23:38;;;;;;;1.30;1.30;;;;;;;2.55;85.10;99644.84;5073175;28;20029;-69
2021/12/20 15:26:04;;;;;;;2.05;1.08;;;;;;;2.46;86.61;99642.03;5067912;28;20013;-69
2021/12/20 15:28:29;;;;;;;1.55;1.55;;;;;;;2.33;87.30;99645.09;5050922;28;20029;-71
2021/12/20 15:30:54;;;;;;;3.33;3.03;;;;;;;2.28;88.00;99647.50;5064554;28;20024;-69
2021/12/20 15:33:20;;;;;;;2.13;1.90;;;;;;;2.21;87.55;99648.16;5072893;28;20374;-70
2021/12/20 15:35:45;;;;;;;0.93;0.70;;;;;;;2.09;86.88;99652.91;5068429;28;20530;-73
2021/12/20 15:38:10;;;;;;;0.95;0.88;;;;;;;2.02;88.76;99645.88;5056156;28;20397;-72
2021/12/20 15:40:35;;;;;;;1.23;1.23;;;;;;;1.91;89.16;99654.91;5071323;28;20033;-71
2021/12/20 15:43:03;;;;;;;1.23;1.23;;;;;;;1.85;89.46;99654.72;5072685;28;20055;-69
2021/12/20 15:45:31;;;;;;;1.58;1.42;;;;;;;1.70;89.43;99648.31;5072574;28;20025;-71
2021/12/20 15:47:58;;;;;;;1.77;0.75;;;;;;;1.60;89.46;99656.50;5072990;28;20073;-73
2021/12/20 15:50:24;;;;;;;0.90;0.90;;;;;;;1.45;90.15;99659.44;5072629;28;20032;-69
2021/12/20 15:52:50;;;;;;;2.60;1.80;;;;;;;1.40;89.39;99657.53;5072902;28;20082;-70
2021/12/20 15:55:16;;;;;;;1.27;1.25;;;;;;;1.32;88.76;99656.44;5072217;28;20024;-69
2021/12/20 15:57:42;;;;;;;1.00;1.00;;;;;;;1.36;87.76;99658.28;5072130;28;20033;-73
2021/12/20 16:00:09;;;;;;;1.65;1.13;;;;;;;1.41;86.89;99656.75;5059515;28;20020;-73
2021/12/20 16:02:35;;;;;;;1.23;1.23;;;;;;;1.38;86.48;99654.06;5070620;28;20032;-69
2021/12/20 16:05:02;;;;;;;9.00;1.02;;;;;;;1.32;87.17;99658.97;5072110;28;20031;-72
2021/12/20 16:07:28;;;;;;;1.13;1.13;;;;;;;1.25;87.97;99657.91;5057110;28;20082;-69
2021/12/20 16:09:53;;;;;;;1.58;1.20;;;;;;;1.18;88.91;99656.84;5064879;28;20024;-73
2021/12/20 16:12:18;;;;;;;0.88;0.88;;;;;;;1.12;89.27;99666.84;5072106;28;20028;-69
2021/12/20 16:14:44;;;;;;;1.10;1.08;;;;;;;1.07;90.16;99660.72;5071993;28;20020;-69